createdAt,value
2023-04-05T00:00:30.045Z,-0.34
2023-04-05T00:01:30.037Z,-0.29
2023-04-05T00:02:30.155Z,-0.20
2023-04-05T00:03:30.088Z,-0.18
2023-04-05T00:04:30.218Z,-0.07
2023-04-05T00:05:30.001Z,-0.13
2023-04-05T00:06:30.019Z,-0.17
2023-04-05T00:07:29.987Z,-0.20
2023-04-05T00:08:29.992Z,-0.21
2023-04-05T00:09:30.015Z,-0.25
2023-04-05T00:10:30.006Z,-0.23
2023-04-05T00:11:29.954Z,-0.28
2023-04-05T00:12:29.956Z,-0.25
2023-04-05T00:13:29.962Z,-0.21
2023-04-05T00:14:29.960Z,-0.32
2023-04-05T00:15:30.923Z,-0.34
2023-04-05T00:16:29.962Z,-0.25
2023-04-05T00:17:29.936Z,-0.20
2023-04-05T00:18:29.905Z,-0.18
2023-04-05T00:19:29.921Z,-0.23
2023-04-05T00:20:29.888Z,-0.23
2023-04-05T00:21:29.888Z,-0.31
2023-04-05T00:22:29.941Z,-0.28
2023-04-05T00:23:29.872Z,-0.21
2023-04-05T00:24:29.901Z,-0.25
2023-04-05T00:25:29.854Z,-0.17
2023-04-05T00:26:29.865Z,-0.28
2023-04-05T00:27:29.836Z,-0.26
2023-04-05T00:28:29.890Z,-0.25
2023-04-05T00:29:29.861Z,-0.32
2023-04-05T00:30:29.824Z,-0.28
2023-04-05T00:31:29.877Z,-0.36
2023-04-05T00:32:29.845Z,-0.35
2023-04-05T00:33:29.804Z,-0.41
2023-04-05T00:34:29.807Z,-0.41
2023-04-05T00:35:29.806Z,-0.43
2023-04-05T00:36:29.796Z,-0.46
2023-04-05T00:37:29.758Z,-0.50
2023-04-05T00:38:29.774Z,-0.47
2023-04-05T00:39:29.782Z,-0.56
2023-04-05T00:40:29.748Z,-0.41
2023-04-05T00:41:29.776Z,-0.56
2023-04-05T00:42:29.724Z,-0.47
2023-04-05T00:43:29.716Z,-0.46
2023-04-05T00:44:29.748Z,-0.52
2023-04-05T00:45:29.709Z,-0.50
2023-04-05T00:46:29.882Z,-0.56
2023-04-05T00:47:29.722Z,-0.53
2023-04-05T00:48:29.727Z,-0.44
2023-04-05T00:49:29.670Z,-0.46
2023-04-05T00:50:29.741Z,-0.50
2023-04-05T00:51:29.682Z,-0.50
2023-04-05T00:52:29.653Z,-0.53
2023-04-05T00:53:29.639Z,-0.53
2023-04-05T00:54:29.700Z,-0.46
2023-04-05T00:55:29.661Z,-0.53
2023-04-05T00:56:29.653Z,-0.56
2023-04-05T00:57:29.626Z,-0.61
2023-04-05T00:58:29.627Z,-0.67
2023-04-05T00:59:29.703Z,-0.62
2023-04-05T01:00:29.624Z,-0.64
2023-04-05T01:01:29.636Z,-0.64
2023-04-05T01:02:29.602Z,-0.67
2023-04-05T01:03:30.569Z,-0.75
2023-04-05T01:04:29.576Z,-0.75
2023-04-05T01:05:29.572Z,-0.67
2023-04-05T01:06:29.564Z,-0.74
2023-04-05T01:07:29.543Z,-0.83
2023-04-05T01:08:29.530Z,-0.70
2023-04-05T01:09:29.585Z,-0.80
2023-04-05T01:10:29.558Z,-0.83
2023-04-05T01:11:29.514Z,-0.85
2023-04-05T01:12:29.530Z,-0.90
2023-04-05T01:13:29.500Z,-0.91
2023-04-05T01:14:29.481Z,-0.90
2023-04-05T01:15:29.520Z,-0.91
2023-04-05T01:16:29.497Z,-0.91
2023-04-05T01:17:29.471Z,-0.89
2023-04-05T01:18:29.452Z,-0.94
2023-04-05T01:19:29.454Z,-0.93
2023-04-05T01:20:29.484Z,-0.96
2023-04-05T01:21:29.423Z,-0.96
2023-04-05T01:22:29.423Z,-0.93
2023-04-05T01:23:29.428Z,-0.91
2023-04-05T01:24:29.409Z,-0.83
2023-04-05T01:25:29.436Z,-0.97
2023-04-05T01:26:29.407Z,-0.99
2023-04-05T01:27:29.392Z,-1.01
2023-04-05T01:28:29.372Z,-1.04
2023-04-05T01:29:29.372Z,-1.07
2023-04-05T01:30:29.389Z,-0.96
2023-04-05T01:31:29.387Z,-1.04
2023-04-05T01:32:29.362Z,-0.94
2023-04-05T01:33:29.336Z,-0.93
2023-04-05T01:34:29.398Z,-0.91
2023-04-05T01:35:29.781Z,-0.83
2023-04-05T01:36:29.334Z,-0.86
2023-04-05T01:37:29.311Z,-0.93
2023-04-05T01:38:29.299Z,-0.97
2023-04-05T01:39:29.298Z,-1.04
2023-04-05T01:40:29.311Z,-0.96
2023-04-05T01:41:29.279Z,-1.11
2023-04-05T01:42:29.317Z,-1.19
2023-04-05T01:43:29.262Z,-1.05
2023-04-05T01:44:29.257Z,-1.12
2023-04-05T01:45:29.315Z,-1.07
2023-04-05T01:46:29.285Z,-1.14
2023-04-05T01:47:29.291Z,-1.15
2023-04-05T01:48:29.224Z,-1.15
2023-04-05T01:49:29.265Z,-1.09
2023-04-05T01:50:29.271Z,-1.15
2023-04-05T01:51:29.316Z,-1.05
2023-04-05T01:52:29.198Z,-1.14
2023-04-05T01:53:29.206Z,-1.14
2023-04-05T01:54:29.195Z,-1.22
2023-04-05T01:55:29.203Z,-1.19
2023-04-05T01:56:29.177Z,-1.07
2023-04-05T01:57:29.179Z,-1.14
2023-04-05T01:58:29.157Z,-1.23
2023-04-05T01:59:29.186Z,-1.22
2023-04-05T02:00:29.204Z,-1.17
2023-04-05T02:01:29.189Z,-1.12
2023-04-05T02:02:29.185Z,-1.20
2023-04-05T02:03:29.245Z,-1.26
2023-04-05T02:04:29.117Z,-1.33
2023-04-05T02:05:29.164Z,-1.37
2023-04-05T02:06:29.093Z,-1.37
2023-04-05T02:07:30.090Z,-1.43
2023-04-05T02:08:29.109Z,-1.40
2023-04-05T02:09:29.084Z,-1.51
2023-04-05T02:10:29.130Z,-1.46
2023-04-05T02:11:29.075Z,-1.47
2023-04-05T02:12:29.058Z,-1.58
2023-04-05T02:13:29.063Z,-1.54
2023-04-05T02:14:29.045Z,-1.50
2023-04-05T02:15:29.064Z,-1.51
2023-04-05T02:16:29.083Z,-1.44
2023-04-05T02:17:29.026Z,-1.61
2023-04-05T02:18:29.027Z,-1.54
2023-04-05T02:19:29.000Z,-1.47
2023-04-05T02:20:29.005Z,-1.50
2023-04-05T02:21:29.011Z,-1.41
2023-04-05T02:22:28.984Z,-1.43
2023-04-05T02:23:28.985Z,-1.41
2023-04-05T02:24:28.978Z,-1.56
2023-04-05T02:25:28.975Z,-1.37
2023-04-05T02:26:28.981Z,-1.48
2023-04-05T02:27:28.953Z,-1.46
2023-04-05T02:28:28.963Z,-1.43
2023-04-05T02:29:28.954Z,-1.51
2023-04-05T02:30:28.931Z,-1.46
2023-04-05T02:31:28.985Z,-1.50
2023-04-05T02:32:28.945Z,-1.50
2023-04-05T02:33:28.909Z,-1.41
2023-04-05T02:34:28.953Z,-1.47
2023-04-05T02:35:28.912Z,-1.50
2023-04-05T02:36:28.920Z,-1.51
2023-04-05T02:37:28.890Z,-1.48
2023-04-05T02:38:28.878Z,-1.41
2023-04-05T02:39:28.862Z,-1.46
2023-04-05T02:40:28.866Z,-1.56
2023-04-05T02:41:28.882Z,-1.51
2023-04-05T02:42:28.847Z,-1.56
2023-04-05T02:43:28.841Z,-1.64
2023-04-05T02:44:28.833Z,-1.62
2023-04-05T02:45:28.870Z,-1.66
2023-04-05T02:46:28.843Z,-1.61
2023-04-05T02:47:28.832Z,-1.58
2023-04-05T02:48:28.803Z,-1.64
2023-04-05T02:49:28.801Z,-1.58
2023-04-05T02:50:28.785Z,-1.56
2023-04-05T02:51:28.814Z,-1.56
2023-04-05T02:52:28.781Z,-1.59
2023-04-05T02:53:28.787Z,-1.61
2023-04-05T02:54:28.780Z,-1.71
2023-04-05T02:55:28.758Z,-1.74
2023-04-05T02:56:28.774Z,-1.71
2023-04-05T02:57:28.742Z,-1.76
2023-04-05T02:58:28.739Z,-1.76
2023-04-05T02:59:28.842Z,-1.72
2023-04-05T03:00:28.734Z,-1.79
2023-04-05T03:01:28.772Z,-1.84
2023-04-05T03:02:28.731Z,-1.84
2023-04-05T03:03:28.730Z,-1.76
2023-04-05T03:04:28.698Z,-1.82
2023-04-05T03:05:28.683Z,-1.83
2023-04-05T03:06:28.700Z,-1.89
2023-04-05T03:07:28.676Z,-1.92
2023-04-05T03:08:28.663Z,-1.82
2023-04-05T03:09:28.651Z,-1.87
2023-04-05T03:10:28.651Z,-1.92
2023-04-05T03:11:28.682Z,-1.94
2023-04-05T03:12:28.628Z,-1.95
2023-04-05T03:13:28.629Z,-1.89
2023-04-05T03:14:28.619Z,-1.98
2023-04-05T03:15:28.609Z,-2.04
2023-04-05T03:16:28.681Z,-2.10
2023-04-05T03:17:28.652Z,-2.07
2023-04-05T03:18:28.594Z,-2.12
2023-04-05T03:19:28.596Z,-2.13
2023-04-05T03:20:28.585Z,-2.07
2023-04-05T03:21:28.655Z,-2.10
2023-04-05T03:22:28.577Z,-2.13
2023-04-05T03:23:28.581Z,-2.08
2023-04-05T03:24:28.544Z,-2.18
2023-04-05T03:25:28.547Z,-2.12
2023-04-05T03:26:28.562Z,-2.12
2023-04-05T03:27:28.541Z,-2.16
2023-04-05T03:28:28.681Z,-2.16
2023-04-05T03:29:28.515Z,-2.22
2023-04-05T03:30:28.502Z,-2.21
2023-04-05T03:31:28.638Z,-2.19
2023-04-05T03:32:28.534Z,-2.22
2023-04-05T03:33:28.507Z,-2.25
2023-04-05T03:34:28.476Z,-2.21
2023-04-05T03:35:28.492Z,-2.19
2023-04-05T03:36:28.485Z,-2.25
2023-04-05T03:37:29.453Z,-2.25
2023-04-05T03:38:28.510Z,-2.25
2023-04-05T03:39:28.442Z,-2.21
2023-04-05T03:40:28.475Z,-2.16
2023-04-05T03:41:28.454Z,-2.22
2023-04-05T03:42:28.424Z,-2.25
2023-04-05T03:43:28.430Z,-2.23
2023-04-05T03:44:28.404Z,-2.28
2023-04-05T03:45:28.399Z,-2.26
2023-04-05T03:46:28.469Z,-2.42
2023-04-05T03:47:28.422Z,-2.37
2023-04-05T03:48:28.397Z,-2.41
2023-04-05T03:49:28.362Z,-2.41
2023-04-05T03:50:28.409Z,-2.28
2023-04-05T03:51:28.401Z,-2.44
2023-04-05T03:52:28.346Z,-2.35
2023-04-05T03:53:28.335Z,-2.42
2023-04-05T03:54:28.339Z,-2.41
2023-04-05T03:55:28.334Z,-2.41
2023-04-05T03:56:28.418Z,-2.40
2023-04-05T03:57:28.312Z,-2.50
2023-04-05T03:58:28.322Z,-2.44
2023-04-05T03:59:28.409Z,-2.41
2023-04-05T04:00:28.283Z,-2.26
2023-04-05T04:01:28.314Z,-2.35
2023-04-05T04:02:28.417Z,-2.38
2023-04-05T04:03:28.299Z,-2.25
2023-04-05T04:04:28.334Z,-2.25
2023-04-05T04:05:28.251Z,-2.23
2023-04-05T04:06:28.278Z,-2.25
2023-04-05T04:07:28.261Z,-2.22
2023-04-05T04:08:28.233Z,-2.32
2023-04-05T04:09:28.223Z,-2.32
2023-04-05T04:10:28.214Z,-2.40
2023-04-05T04:11:28.205Z,-2.41
2023-04-05T04:12:29.237Z,-2.25
2023-04-05T04:13:28.193Z,-2.34
2023-04-05T04:14:28.187Z,-2.34
2023-04-05T04:15:28.182Z,-2.35
2023-04-05T04:16:28.826Z,-2.38
2023-04-05T04:17:29.238Z,-2.37
2023-04-05T04:18:28.165Z,-2.28
2023-04-05T04:19:29.149Z,-2.30
2023-04-05T04:20:28.136Z,-2.26
2023-04-05T04:21:28.133Z,-2.37
2023-04-05T04:22:28.145Z,-2.37
2023-04-05T04:23:28.128Z,-2.32
2023-04-05T04:24:28.116Z,-2.22
2023-04-05T04:25:28.095Z,-2.40
2023-04-05T04:26:28.099Z,-2.44
2023-04-05T04:27:28.116Z,-2.41
2023-04-05T04:28:28.095Z,-2.50
2023-04-05T04:29:28.077Z,-2.55
2023-04-05T04:30:28.069Z,-2.55
2023-04-05T04:31:28.074Z,-2.63
2023-04-05T04:32:28.112Z,-2.70
2023-04-05T04:33:28.048Z,-2.69
2023-04-05T04:34:28.039Z,-2.62
2023-04-05T04:35:28.112Z,-2.73
2023-04-05T04:36:28.038Z,-2.73
2023-04-05T04:37:28.048Z,-2.71
2023-04-05T04:38:28.016Z,-2.63
2023-04-05T04:39:28.007Z,-2.77
2023-04-05T04:40:27.999Z,-2.73
2023-04-05T04:41:40.125Z,-2.77
2023-04-05T04:42:28.013Z,-2.73
2023-04-05T04:43:27.980Z,-2.76
2023-04-05T04:44:28.005Z,-2.76
2023-04-05T04:45:27.991Z,-2.80
2023-04-05T04:46:27.976Z,-2.80
2023-04-05T04:47:27.995Z,-2.80
2023-04-05T04:48:27.951Z,-2.81
2023-04-05T04:49:27.941Z,-2.81
2023-04-05T04:50:27.936Z,-2.76
2023-04-05T04:51:27.924Z,-2.80
2023-04-05T04:52:27.951Z,-2.74
2023-04-05T04:53:27.903Z,-2.78
2023-04-05T04:54:27.994Z,-2.77
2023-04-05T04:55:27.932Z,-2.78
2023-04-05T04:56:27.895Z,-2.70
2023-04-05T04:57:27.898Z,-2.70
2023-04-05T04:58:27.870Z,-2.73
2023-04-05T04:59:27.898Z,-2.71
2023-04-05T05:00:27.875Z,-2.84
2023-04-05T05:01:27.950Z,-2.80
2023-04-05T05:02:30.568Z,-2.71
2023-04-05T05:03:27.846Z,-2.76
2023-04-05T05:04:27.950Z,-2.78
2023-04-05T05:05:27.856Z,-2.65
2023-04-05T05:06:27.819Z,-2.70
2023-04-05T05:07:27.848Z,-2.77
2023-04-05T05:08:27.814Z,-2.74
2023-04-05T05:09:27.794Z,-2.84
2023-04-05T05:10:27.792Z,-2.77
2023-04-05T05:11:27.783Z,-2.84
2023-04-05T05:12:27.804Z,-2.92
2023-04-05T05:13:27.784Z,-2.76
2023-04-05T05:14:27.754Z,-2.69
2023-04-05T05:15:27.793Z,-2.70
2023-04-05T05:16:27.790Z,-2.60
2023-04-05T05:17:27.786Z,-2.55
2023-04-05T05:18:27.734Z,-2.59
2023-04-05T05:19:27.729Z,-2.60
2023-04-05T05:20:27.726Z,-2.42
2023-04-05T05:21:27.712Z,-2.42
2023-04-05T05:22:27.755Z,-2.41
2023-04-05T05:23:27.694Z,-2.41
2023-04-05T05:24:27.698Z,-2.45
2023-04-05T05:25:28.444Z,-2.38
2023-04-05T05:26:27.713Z,-2.47
2023-04-05T05:27:28.744Z,-2.34
2023-04-05T05:28:27.663Z,-2.30
2023-04-05T05:29:27.655Z,-2.22
2023-04-05T05:30:28.651Z,-2.26
2023-04-05T05:31:27.680Z,-2.21
2023-04-05T05:32:27.685Z,-1.74
2023-04-05T05:33:27.627Z,-0.89
2023-04-05T05:34:27.621Z,-0.31
2023-04-05T05:35:27.666Z,0.37
2023-04-05T05:36:27.606Z,0.88
2023-04-05T05:37:27.627Z,1.24
2023-04-05T05:38:27.587Z,1.67
2023-04-05T05:39:27.692Z,1.77
2023-04-05T05:40:27.580Z,1.67
2023-04-05T05:41:27.572Z,1.45
2023-04-05T05:42:27.617Z,1.40
2023-04-05T05:43:27.554Z,1.26
2023-04-05T05:44:27.564Z,1.01
2023-04-05T05:45:27.552Z,0.96
2023-04-05T05:46:27.638Z,1.01
2023-04-05T05:47:27.587Z,1.01
2023-04-05T05:48:27.723Z,0.95
2023-04-05T05:49:27.519Z,0.91
2023-04-05T05:50:27.521Z,0.83
2023-04-05T05:51:27.502Z,0.66
2023-04-05T05:52:27.524Z,0.77
2023-04-05T05:53:27.473Z,0.60
2023-04-05T05:54:28.475Z,0.66
2023-04-05T05:55:27.476Z,0.50
2023-04-05T05:56:27.461Z,0.31
2023-04-05T05:57:27.529Z,0.34
2023-04-05T05:58:27.481Z,0.31
2023-04-05T05:59:27.557Z,0.19
2023-04-05T06:00:27.472Z,0.19
2023-04-05T06:01:27.422Z,0.11
2023-04-05T06:02:27.498Z,0.03
2023-04-05T06:03:27.493Z,0.18
2023-04-05T06:04:27.489Z,0.25
2023-04-05T06:05:27.397Z,0.22
2023-04-05T06:06:27.392Z,0.28
2023-04-05T06:07:27.403Z,0.32
2023-04-05T06:08:27.374Z,0.34
2023-04-05T06:09:27.371Z,0.25
2023-04-05T06:10:27.362Z,0.29
2023-04-05T06:11:27.381Z,0.22
2023-04-05T06:12:28.755Z,0.07
2023-04-05T06:13:27.335Z,-0.06
2023-04-05T06:14:27.337Z,-0.17
2023-04-05T06:15:27.362Z,-0.25
2023-04-05T06:16:27.389Z,0.07
2023-04-05T06:17:27.445Z,0.11
2023-04-05T06:18:27.303Z,0.05
2023-04-05T06:19:27.289Z,0.19
2023-04-05T06:20:27.310Z,0.18
2023-04-05T06:21:27.270Z,-0.13
2023-04-05T06:22:27.307Z,-0.25
2023-04-05T06:23:27.264Z,-0.32
2023-04-05T06:24:27.267Z,-0.31
2023-04-05T06:25:27.245Z,-0.34
2023-04-05T06:26:27.247Z,-0.36
2023-04-05T06:27:27.294Z,-0.39
2023-04-05T06:28:27.221Z,-0.29
2023-04-05T06:29:27.220Z,-0.29
2023-04-05T06:30:27.212Z,-0.25
2023-04-05T06:31:27.304Z,-0.20
2023-04-05T06:32:27.220Z,-0.29
2023-04-05T06:33:27.212Z,-0.02
2023-04-05T06:34:27.176Z,-0.03
2023-04-05T06:35:27.174Z,0.00
2023-04-05T06:36:27.827Z,0.00
2023-04-05T06:37:28.156Z,-0.15
2023-04-05T06:38:27.222Z,-0.29
2023-04-05T06:39:27.140Z,-0.32
2023-04-05T06:40:27.133Z,-0.14
2023-04-05T06:41:27.122Z,-0.07
2023-04-05T06:42:28.117Z,0.15
2023-04-05T06:43:28.124Z,0.29
2023-04-05T06:44:27.098Z,0.21
2023-04-05T06:45:27.128Z,-0.21
2023-04-05T06:46:27.129Z,-0.13
2023-04-05T06:47:27.100Z,-0.07
2023-04-05T06:48:27.066Z,-0.14
2023-04-05T06:49:27.070Z,-0.23
2023-04-05T06:50:27.080Z,-0.17
2023-04-05T06:51:27.051Z,0.03
2023-04-05T06:52:27.041Z,0.12
2023-04-05T06:53:27.037Z,0.07
2023-04-05T06:54:27.016Z,0.18
2023-04-05T06:55:27.046Z,0.07
2023-04-05T06:56:27.016Z,0.23
2023-04-05T06:57:27.008Z,0.34
2023-04-05T06:58:27.028Z,0.62
2023-04-05T06:59:27.012Z,0.50
2023-04-05T07:00:26.979Z,0.26
2023-04-05T07:01:27.049Z,0.32
2023-04-05T07:02:27.050Z,0.12
2023-04-05T07:03:26.970Z,0.07
2023-04-05T07:04:27.008Z,0.16
2023-04-05T07:05:26.961Z,0.23
2023-04-05T07:06:26.963Z,0.00
2023-04-05T07:07:26.933Z,-0.26
2023-04-05T07:08:26.926Z,0.03
2023-04-05T07:09:26.923Z,0.23
2023-04-05T07:10:26.912Z,0.37
2023-04-05T07:11:26.929Z,0.47
2023-04-05T07:12:26.888Z,0.40
2023-04-05T07:13:26.918Z,0.41
2023-04-05T07:14:26.877Z,0.41
2023-04-05T07:15:26.864Z,0.37
2023-04-05T07:16:26.962Z,0.59
2023-04-05T07:17:26.873Z,0.59
2023-04-05T07:18:26.852Z,0.74
2023-04-05T07:19:26.838Z,0.81
2023-04-05T07:20:26.840Z,0.87
2023-04-05T07:21:26.855Z,0.76
2023-04-05T07:22:26.814Z,0.81
2023-04-05T07:23:26.810Z,0.86
2023-04-05T07:24:26.804Z,0.92
2023-04-05T07:25:26.796Z,0.99
2023-04-05T07:26:26.817Z,1.10
2023-04-05T07:27:26.775Z,1.12
2023-04-05T07:28:26.770Z,1.37
2023-04-05T07:29:26.753Z,1.45
2023-04-05T07:30:27.758Z,1.42
2023-04-05T07:31:26.788Z,1.56
2023-04-05T07:32:26.936Z,1.49
2023-04-05T07:33:26.731Z,1.31
2023-04-05T07:34:26.729Z,1.14
2023-04-05T07:35:26.900Z,1.22
2023-04-05T07:36:27.638Z,0.95
2023-04-05T07:37:26.700Z,1.01
2023-04-05T07:38:27.713Z,0.88
2023-04-05T07:39:26.769Z,1.19
2023-04-05T07:40:26.694Z,1.13
2023-04-05T07:41:26.713Z,1.30
2023-04-05T07:42:26.688Z,1.59
2023-04-05T07:43:26.660Z,1.63
2023-04-05T07:44:26.648Z,1.80
2023-04-05T07:45:27.663Z,1.84
2023-04-05T07:46:26.746Z,1.91
2023-04-05T07:47:26.663Z,2.06
2023-04-05T07:48:26.626Z,2.07
2023-04-05T07:49:26.648Z,2.04
2023-04-05T07:50:26.632Z,2.49
2023-04-05T07:51:26.655Z,2.44
2023-04-05T07:52:26.595Z,2.25
2023-04-05T07:53:26.588Z,2.11
2023-04-05T07:54:26.610Z,2.22
2023-04-05T07:55:26.588Z,2.53
2023-04-05T07:56:26.590Z,2.82
2023-04-05T07:57:26.555Z,3.03
2023-04-05T07:58:26.549Z,3.21
2023-04-05T07:59:26.614Z,3.21
2023-04-05T08:00:26.564Z,3.08
2023-04-05T08:01:26.559Z,3.16
2023-04-05T08:02:26.548Z,3.23
2023-04-05T08:03:26.663Z,3.03
2023-04-05T08:04:26.512Z,3.04
2023-04-05T08:05:26.611Z,3.37
2023-04-05T08:06:26.516Z,3.13
2023-04-05T08:07:26.492Z,2.95
2023-04-05T08:08:26.489Z,2.95
2023-04-05T08:09:26.481Z,3.11
2023-04-05T08:10:26.462Z,3.69
2023-04-05T08:11:26.478Z,3.66
2023-04-05T08:12:26.445Z,3.74
2023-04-05T08:13:26.440Z,3.60
2023-04-05T08:14:26.426Z,3.51
2023-04-05T08:15:26.424Z,3.95
2023-04-05T08:16:26.509Z,4.16
2023-04-05T08:17:26.438Z,4.04
2023-04-05T08:18:26.415Z,3.68
2023-04-05T08:19:26.400Z,3.84
2023-04-05T08:20:26.389Z,4.08
2023-04-05T08:21:26.404Z,3.95
2023-04-05T08:22:26.373Z,3.81
2023-04-05T08:23:26.364Z,3.69
2023-04-05T08:24:26.407Z,3.69
2023-04-05T08:25:26.363Z,3.68
2023-04-05T08:26:26.369Z,3.88
2023-04-05T08:27:26.327Z,4.14
2023-04-05T08:28:26.314Z,4.30
2023-04-05T08:29:27.323Z,4.48
2023-04-05T08:30:26.310Z,4.56
2023-04-05T08:31:26.371Z,4.67
2023-04-05T08:32:26.308Z,4.96
2023-04-05T08:33:26.428Z,5.17
2023-04-05T08:34:26.279Z,5.59
2023-04-05T08:35:26.292Z,5.91
2023-04-05T08:36:26.290Z,6.33
2023-04-05T08:37:26.256Z,6.14
2023-04-05T08:38:26.275Z,6.49
2023-04-05T08:39:26.244Z,6.64
2023-04-05T08:40:26.242Z,5.69
2023-04-05T08:41:26.242Z,5.10
2023-04-05T08:42:26.251Z,5.08
2023-04-05T08:43:26.212Z,5.17
2023-04-05T08:44:26.202Z,5.28
2023-04-05T08:45:26.208Z,5.23
2023-04-05T08:46:26.233Z,5.26
2023-04-05T08:47:26.246Z,5.47
2023-04-05T08:48:26.179Z,5.90
2023-04-05T08:49:26.177Z,6.60
2023-04-05T08:50:26.170Z,6.72
2023-04-05T08:51:26.157Z,6.33
2023-04-05T08:52:26.174Z,6.09
2023-04-05T08:53:26.140Z,5.90
2023-04-05T08:54:26.151Z,6.02
2023-04-05T08:55:26.138Z,6.44
2023-04-05T08:56:26.135Z,6.87
2023-04-05T08:57:26.146Z,7.07
2023-04-05T08:58:26.105Z,7.60
2023-04-05T08:59:26.165Z,7.76
2023-04-05T09:00:26.095Z,7.93
2023-04-05T09:01:26.096Z,7.36
2023-04-05T09:02:26.192Z,7.28
2023-04-05T09:03:26.166Z,6.95
2023-04-05T09:04:26.057Z,6.63
2023-04-05T09:05:26.050Z,6.96
2023-04-05T09:06:26.047Z,7.20
2023-04-05T09:07:26.059Z,7.43
2023-04-05T09:08:26.036Z,7.60
2023-04-05T09:09:26.054Z,7.79
2023-04-05T09:10:26.011Z,8.06
2023-04-05T09:11:26.022Z,8.23
2023-04-05T09:12:26.043Z,8.28
2023-04-05T09:13:25.992Z,8.34
2023-04-05T09:14:25.984Z,8.16
2023-04-05T09:15:25.986Z,7.75
2023-04-05T09:16:25.998Z,7.56
2023-04-05T09:17:25.984Z,7.72
2023-04-05T09:18:27.279Z,7.61
2023-04-05T09:19:26.960Z,7.67
2023-04-05T09:20:26.017Z,7.61
2023-04-05T09:21:25.936Z,7.48
2023-04-05T09:22:25.946Z,7.61
2023-04-05T09:23:25.942Z,7.69
2023-04-05T09:24:25.916Z,7.35
2023-04-05T09:25:25.899Z,7.35
2023-04-05T09:26:25.896Z,7.51
2023-04-05T09:27:25.922Z,7.73
2023-04-05T09:28:25.891Z,7.70
2023-04-05T09:29:25.886Z,7.53
2023-04-05T09:30:25.877Z,7.25
2023-04-05T09:31:25.882Z,7.31
2023-04-05T09:32:25.907Z,7.15
2023-04-05T09:33:25.843Z,7.05
2023-04-05T09:34:25.835Z,7.00
2023-04-05T09:35:25.832Z,7.10
2023-04-05T09:36:25.836Z,7.31
2023-04-05T09:37:25.833Z,7.43
2023-04-05T09:38:25.798Z,7.28
2023-04-05T09:39:25.794Z,7.25
2023-04-05T09:40:25.784Z,7.31
2023-04-05T09:41:25.774Z,7.57
2023-04-05T09:42:26.835Z,7.87
2023-04-05T09:43:25.770Z,8.20
2023-04-05T09:44:25.758Z,8.44
2023-04-05T09:45:25.746Z,8.63
2023-04-05T09:46:25.754Z,8.66
2023-04-05T09:47:25.818Z,8.26
2023-04-05T09:48:25.728Z,7.95
2023-04-05T09:49:25.732Z,7.95
2023-04-05T09:50:25.708Z,7.91
2023-04-05T09:51:25.710Z,7.83
2023-04-05T09:52:25.731Z,8.23
2023-04-05T09:53:25.691Z,8.26
2023-04-05T09:54:25.682Z,8.18
2023-04-05T09:55:25.674Z,7.95
2023-04-05T09:56:25.662Z,8.09
2023-04-05T09:57:26.734Z,7.97
2023-04-05T09:58:25.650Z,7.94
2023-04-05T09:59:25.681Z,8.09
2023-04-05T10:00:25.651Z,7.95
2023-04-05T10:01:25.643Z,7.75
2023-04-05T10:02:25.735Z,7.60
2023-04-05T10:03:25.685Z,7.69
2023-04-05T10:04:26.754Z,7.75
2023-04-05T10:05:25.588Z,7.97
2023-04-05T10:06:25.588Z,8.34
2023-04-05T10:07:25.571Z,8.42
2023-04-05T10:08:25.603Z,8.48
2023-04-05T10:09:25.560Z,8.51
2023-04-05T10:10:25.605Z,8.26
2023-04-05T10:11:25.548Z,8.26
2023-04-05T10:12:25.543Z,8.27
2023-04-05T10:13:25.555Z,8.56
2023-04-05T10:14:25.528Z,8.05
2023-04-05T10:15:25.535Z,7.80
2023-04-05T10:16:25.550Z,7.51
2023-04-05T10:17:25.528Z,7.35
2023-04-05T10:18:25.520Z,7.63
2023-04-05T10:19:25.490Z,8.15
2023-04-05T10:20:25.495Z,8.63
2023-04-05T10:21:25.473Z,8.94
2023-04-05T10:22:25.459Z,8.92
2023-04-05T10:23:25.491Z,8.88
2023-04-05T10:24:25.465Z,8.97
2023-04-05T10:25:25.439Z,9.03
2023-04-05T10:26:25.438Z,9.21
2023-04-05T10:27:25.432Z,9.46
2023-04-05T10:28:25.459Z,9.58
2023-04-05T10:29:25.406Z,9.43
2023-04-05T10:30:25.466Z,9.34
2023-04-05T10:31:37.030Z,9.26
2023-04-05T10:32:27.404Z,9.36
2023-04-05T10:33:25.469Z,9.29
2023-04-05T10:34:25.433Z,9.37
2023-04-05T10:35:25.423Z,9.43
2023-04-05T10:36:25.385Z,9.16
2023-04-05T10:37:25.412Z,8.87
2023-04-05T10:38:25.379Z,8.01
2023-04-05T10:39:25.339Z,7.83
2023-04-05T10:40:25.368Z,7.83
2023-04-05T10:41:26.324Z,8.03
2023-04-05T10:42:57.296Z,8.06
2023-04-05T10:43:25.359Z,8.18
2023-04-05T10:44:26.979Z,8.03
2023-04-05T10:45:26.299Z,7.93
2023-04-05T10:46:25.331Z,7.82
2023-04-05T10:47:25.328Z,7.82
2023-04-05T10:48:25.314Z,8.06
2023-04-05T10:49:25.264Z,7.87
2023-04-05T10:50:25.284Z,7.76
2023-04-05T10:51:25.263Z,7.91
2023-04-05T10:52:25.232Z,8.12
2023-04-05T10:53:25.309Z,8.34
2023-04-05T10:54:25.413Z,8.16
2023-04-05T10:55:25.262Z,8.33
2023-04-05T10:56:25.226Z,8.58
2023-04-05T10:57:25.262Z,8.87
2023-04-05T10:58:25.250Z,8.91
2023-04-05T10:59:25.274Z,8.53
2023-04-05T11:00:25.190Z,8.69
2023-04-05T11:01:25.234Z,8.87
2023-04-05T11:02:25.202Z,8.97
2023-04-05T11:03:25.384Z,7.88
2023-04-05T11:04:25.257Z,6.67
2023-04-05T11:05:25.169Z,6.95
2023-04-05T11:06:25.171Z,6.84
2023-04-05T11:07:25.138Z,6.75
2023-04-05T11:08:25.193Z,6.59
2023-04-05T11:09:25.153Z,6.60
2023-04-05T11:10:25.107Z,7.07
2023-04-05T11:11:25.182Z,7.23
2023-04-05T11:12:25.094Z,6.84
2023-04-05T11:13:25.084Z,6.78
2023-04-05T11:14:25.187Z,6.92
2023-04-05T11:15:25.148Z,6.77
2023-04-05T11:16:25.123Z,6.89
2023-04-05T11:17:25.072Z,7.02
2023-04-05T11:18:25.057Z,7.24
2023-04-05T11:19:25.247Z,7.25
2023-04-05T11:20:25.054Z,7.25
2023-04-05T11:21:25.014Z,7.05
2023-04-05T11:22:26.020Z,6.96
2023-04-05T11:23:25.309Z,6.69
2023-04-05T11:24:25.039Z,6.52
2023-04-05T11:25:25.007Z,6.72
2023-04-05T11:26:24.988Z,6.82
2023-04-05T11:27:24.985Z,7.38
2023-04-05T11:28:24.997Z,7.85
2023-04-05T11:29:24.994Z,7.90
2023-04-05T11:30:24.960Z,8.05
2023-04-05T11:31:25.009Z,8.16
2023-04-05T11:32:24.977Z,8.51
2023-04-05T11:33:24.967Z,8.56
2023-04-05T11:34:25.400Z,8.42
2023-04-05T11:35:25.936Z,8.03
2023-04-05T11:36:24.915Z,8.00
2023-04-05T11:37:24.908Z,8.36
2023-04-05T11:38:24.900Z,8.64
2023-04-05T11:39:24.923Z,8.56
2023-04-05T11:40:24.905Z,8.45
2023-04-05T11:41:24.869Z,8.73
2023-04-05T11:42:24.876Z,9.11
2023-04-05T11:43:24.862Z,9.31
2023-04-05T11:44:24.883Z,8.66
2023-04-05T11:45:24.868Z,9.03
2023-04-05T11:46:24.893Z,9.31
2023-04-05T11:47:24.845Z,9.32
2023-04-05T11:48:24.848Z,8.87
2023-04-05T11:49:24.846Z,8.94
2023-04-05T11:50:24.799Z,9.00
2023-04-05T11:51:24.796Z,9.31
2023-04-05T11:52:24.788Z,9.44
2023-04-05T11:53:24.783Z,9.91
2023-04-05T11:54:24.822Z,9.22
2023-04-05T11:55:24.767Z,7.69
2023-04-05T11:56:24.757Z,7.05
2023-04-05T11:57:24.749Z,7.07
2023-04-05T11:58:24.756Z,7.54
2023-04-05T11:59:24.777Z,7.85
2023-04-05T12:00:24.755Z,7.94
2023-04-05T12:01:24.722Z,8.05
2023-04-05T12:02:24.816Z,7.94
2023-04-05T12:03:24.738Z,8.08
2023-04-05T12:04:24.743Z,7.87
2023-04-05T12:05:24.718Z,7.58
2023-04-05T12:06:24.682Z,7.73
2023-04-05T12:07:24.675Z,7.97
2023-04-05T12:08:24.665Z,8.15
2023-04-05T12:09:24.666Z,8.38
2023-04-05T12:10:24.673Z,8.74
2023-04-05T12:11:24.647Z,9.06
2023-04-05T12:12:24.642Z,9.06
2023-04-05T12:13:24.628Z,8.66
2023-04-05T12:14:24.621Z,8.10
2023-04-05T12:15:24.668Z,8.49
2023-04-05T12:16:24.678Z,8.67
2023-04-05T12:17:24.658Z,9.21
2023-04-05T12:18:24.585Z,9.41
2023-04-05T12:19:24.591Z,9.39
2023-04-05T12:20:24.649Z,9.51
2023-04-05T12:21:24.558Z,9.69
2023-04-05T12:22:24.560Z,9.87
2023-04-05T12:23:24.559Z,10.04
2023-04-05T12:24:24.555Z,10.10
2023-04-05T12:25:24.565Z,9.64
2023-04-05T12:26:24.530Z,9.18
2023-04-05T12:27:24.523Z,8.85
2023-04-05T12:28:24.514Z,8.60
2023-04-05T12:29:24.527Z,8.49
2023-04-05T12:30:24.597Z,8.09
2023-04-05T12:31:24.501Z,8.00
2023-04-05T12:32:24.494Z,7.77
2023-04-05T12:33:25.487Z,7.82
2023-04-05T12:34:24.485Z,7.43
2023-04-05T12:35:24.546Z,7.43
2023-04-05T12:36:24.548Z,7.70
2023-04-05T12:37:24.481Z,7.72
2023-04-05T12:38:24.448Z,7.50
2023-04-05T12:39:24.443Z,7.51
2023-04-05T12:40:24.467Z,7.54
2023-04-05T12:41:24.429Z,7.70
2023-04-05T12:42:24.421Z,7.83
2023-04-05T12:43:24.424Z,8.27
2023-04-05T12:44:24.409Z,8.70
2023-04-05T12:45:24.427Z,8.81
2023-04-05T12:46:24.481Z,8.89
2023-04-05T12:47:24.412Z,8.15
2023-04-05T12:48:24.375Z,7.75
2023-04-05T12:49:24.370Z,7.76
2023-04-05T12:50:24.384Z,8.16
2023-04-05T12:51:24.358Z,8.16
2023-04-05T12:52:24.336Z,8.18
2023-04-05T12:53:24.336Z,7.97
2023-04-05T12:54:24.369Z,7.72
2023-04-05T12:55:24.312Z,7.73
2023-04-05T12:56:24.333Z,7.76
2023-04-05T12:57:24.298Z,7.76
2023-04-05T12:58:24.350Z,7.91
2023-04-05T12:59:24.312Z,8.00
2023-04-05T13:00:25.320Z,8.01
2023-04-05T13:01:24.303Z,8.10
2023-04-05T13:02:24.333Z,7.98
2023-04-05T13:03:24.299Z,8.15
2023-04-05T13:04:24.299Z,8.16
2023-04-05T13:05:24.270Z,8.09
2023-04-05T13:06:24.261Z,8.28